KAC965 VTSP-VTBS
Flight info
| Callsign | KAC965 |
|---|---|
| Flight time | N/A |
| Altitude | 35000 |
| Route | EMRIT1A EMRIT Y99 NONEL Y98 LEBIM LEBIM1C |
| Aircraft | B77W/H-SDE1E2E3FGHIJ2J3J4J5M1RWXY/LB1D1 |
Departure
| Time | 2026-05-06 06:04 |
|---|---|
| Airport | Phuket International Airport (VTSP) |
Arrival
| Time | N/A |
|---|---|
| Airport | Suvarnabhumi Airport (VTBS) |
| Time | Latitude | Longitude | Altitude | Speed | Heading |
|---|---|---|---|---|---|
| 2026-05-06 05:18 | 8.10587 | 98.30449 | 32 ft | 0 kts | 105° |
| 2026-05-06 05:52 | 8.10589 | 98.30442 | 32 ft | 4 kts | 102° |
| 2026-05-06 05:53 | 8.10591 | 98.30416 | 32 ft | 4 kts | 76° |
| 2026-05-06 05:53 | 8.10580 | 98.30391 | 32 ft | 4 kts | 60° |
| 2026-05-06 05:53 | 8.10576 | 98.30383 | 32 ft | 0 kts | 61° |
| 2026-05-06 05:56 | 8.10576 | 98.30384 | 32 ft | 0 kts | 60° |
| 2026-05-06 05:56 | 8.10579 | 98.30387 | 32 ft | 1 kts | 49° |
| 2026-05-06 05:56 | 8.10604 | 98.30389 | 32 ft | 5 kts | 358° |
| 2026-05-06 05:56 | 8.10639 | 98.30390 | 32 ft | 5 kts | 4° |
| 2026-05-06 05:57 | 8.10680 | 98.30390 | 32 ft | 6 kts | 353° |
| 2026-05-06 05:57 | 8.10755 | 98.30368 | 31 ft | 17 kts | 340° |
| 2026-05-06 05:57 | 8.10865 | 98.30370 | 31 ft | 11 kts | 13° |
| 2026-05-06 05:57 | 8.10941 | 98.30389 | 32 ft | 11 kts | 15° |
| 2026-05-06 05:58 | 8.11010 | 98.30395 | 32 ft | 5 kts | 335° |
| 2026-05-06 05:58 | 8.11028 | 98.30381 | 32 ft | 0 kts | 320° |
| 2026-05-06 05:58 | 8.11033 | 98.30376 | 31 ft | 2 kts | 320° |
| 2026-05-06 05:58 | 8.11045 | 98.30368 | 31 ft | 3 kts | 328° |
| 2026-05-06 05:59 | 8.11094 | 98.30352 | 31 ft | 15 kts | 348° |
| 2026-05-06 05:59 | 8.11190 | 98.30358 | 31 ft | 8 kts | 39° |
| 2026-05-06 05:59 | 8.11200 | 98.30401 | 32 ft | 6 kts | 83° |
| 2026-05-06 05:59 | 8.11205 | 98.30439 | 32 ft | 0 kts | 84° |
| 2026-05-06 06:02 | 8.11205 | 98.30443 | 32 ft | 1 kts | 84° |
| 2026-05-06 06:03 | 8.11206 | 98.30450 | 32 ft | 1 kts | 84° |
| 2026-05-06 06:03 | 8.11208 | 98.30477 | 32 ft | 16 kts | 84° |
| 2026-05-06 06:03 | 8.11283 | 98.31235 | 40 ft | 158 kts | 84° |
| 2026-05-06 06:03 | 8.11373 | 98.32084 | 426 ft | 197 kts | 84° |
| 2026-05-06 06:04 | 8.11502 | 98.33505 | 1934 ft | 207 kts | 87° |
| 2026-05-06 06:04 | 8.11632 | 98.35044 | 2934 ft | 232 kts | 85° |
| 2026-05-06 06:04 | 8.11782 | 98.36673 | 3482 ft | 256 kts | 85° |
| 2026-05-06 06:05 | 8.11836 | 98.37228 | 3803 ft | 258 kts | 84° |
| 2026-05-06 06:06 | 8.12012 | 98.39029 | 4895 ft | 262 kts | 85° |
| 2026-05-06 06:06 | 8.12188 | 98.40889 | 5973 ft | 268 kts | 85° |
| 2026-05-06 06:06 | 8.12362 | 98.42768 | 7115 ft | 270 kts | 85° |
| 2026-05-06 06:06 | 8.12541 | 98.44676 | 8150 ft | 275 kts | 85° |
| 2026-05-06 06:07 | 8.12722 | 98.46596 | 9164 ft | 279 kts | 85° |
| 2026-05-06 06:07 | 8.12909 | 98.48577 | 10161 ft | 284 kts | 85° |
| 2026-05-06 06:07 | 8.13061 | 98.50187 | 10760 ft | 297 kts | 85° |
| 2026-05-06 06:08 | 8.13241 | 98.52111 | 11021 ft | 323 kts | 85° |
| 2026-05-06 06:08 | 8.13460 | 98.54467 | 11250 ft | 353 kts | 85° |
| 2026-05-06 06:08 | 8.13697 | 98.57010 | 11885 ft | 367 kts | 85° |
| 2026-05-06 06:08 | 8.13937 | 98.59572 | 12725 ft | 374 kts | 85° |
| 2026-05-06 06:09 | 8.14035 | 98.62223 | 13583 ft | 377 kts | 95° |
| 2026-05-06 06:09 | 8.13615 | 98.64846 | 14348 ft | 384 kts | 102° |
| 2026-05-06 06:09 | 8.13072 | 98.67494 | 15180 ft | 390 kts | 101° |
| 2026-05-06 06:09 | 8.12920 | 98.68249 | 15425 ft | 391 kts | 101° |
| 2026-05-06 06:10 | 8.12390 | 98.70985 | 16269 ft | 396 kts | 101° |
| 2026-05-06 06:10 | 8.11891 | 98.73710 | 17060 ft | 401 kts | 100° |
| 2026-05-06 06:10 | 8.11398 | 98.76509 | 17844 ft | 406 kts | 100° |
| 2026-05-06 06:10 | 8.10906 | 98.79336 | 18597 ft | 411 kts | 100° |
| 2026-05-06 06:11 | 8.10484 | 98.82218 | 19278 ft | 416 kts | 94° |
| 2026-05-06 06:11 | 8.10462 | 98.85138 | 19845 ft | 424 kts | 88° |
| 2026-05-06 06:11 | 8.10606 | 98.88129 | 20476 ft | 430 kts | 88° |
| 2026-05-06 06:11 | 8.10715 | 98.91147 | 21135 ft | 434 kts | 89° |
| 2026-05-06 06:12 | 8.10811 | 98.94224 | 21726 ft | 436 kts | 85° |
| 2026-05-06 06:12 | 8.11468 | 98.97235 | 22156 ft | 445 kts | 69° |
| 2026-05-06 06:12 | 8.12899 | 99.00006 | 22720 ft | 451 kts | 56° |
| 2026-05-06 06:12 | 8.14948 | 99.02413 | 23260 ft | 452 kts | 46° |
| 2026-05-06 06:13 | 8.17155 | 99.04666 | 23720 ft | 459 kts | 46° |
| 2026-05-06 06:13 | 8.19414 | 99.06990 | 24203 ft | 463 kts | 46° |
| 2026-05-06 06:13 | 8.21646 | 99.09314 | 24764 ft | 466 kts | 46° |
| 2026-05-06 06:13 | 8.23913 | 99.11700 | 25346 ft | 467 kts | 46° |
| 2026-05-06 06:14 | 8.26168 | 99.14089 | 25889 ft | 470 kts | 47° |
| 2026-05-06 06:14 | 8.28406 | 99.16468 | 26385 ft | 473 kts | 47° |
| 2026-05-06 06:14 | 8.30690 | 99.18895 | 26844 ft | 476 kts | 47° |
| 2026-05-06 06:14 | 8.32959 | 99.21305 | 27288 ft | 479 kts | 47° |
| 2026-05-06 06:15 | 8.35272 | 99.23761 | 27730 ft | 482 kts | 47° |
| 2026-05-06 06:15 | 8.37610 | 99.26244 | 28185 ft | 485 kts | 47° |
| 2026-05-06 06:15 | 8.39929 | 99.28708 | 28585 ft | 488 kts | 47° |
| 2026-05-06 06:15 | 8.42333 | 99.31137 | 28934 ft | 489 kts | 40° |
| 2026-05-06 06:16 | 8.45174 | 99.33020 | 29195 ft | 495 kts | 26° |
| 2026-05-06 06:16 | 8.48419 | 99.34207 | 29560 ft | 498 kts | 14° |
| 2026-05-06 06:16 | 8.51815 | 99.34658 | 29915 ft | 498 kts | 3° |
| 2026-05-06 06:16 | 8.55297 | 99.34762 | 30199 ft | 502 kts | 2° |
| 2026-05-06 06:17 | 8.58827 | 99.34864 | 30480 ft | 505 kts | 2° |
| 2026-05-06 06:17 | 8.62299 | 99.34992 | 30841 ft | 505 kts | 3° |
| 2026-05-06 06:17 | 8.65835 | 99.35154 | 31318 ft | 503 kts | 4° |
| 2026-05-06 06:17 | 8.69309 | 99.35333 | 31783 ft | 501 kts | 4° |
| 2026-05-06 06:18 | 8.72758 | 99.35514 | 32224 ft | 500 kts | 4° |
| 2026-05-06 06:18 | 8.76246 | 99.35695 | 32660 ft | 499 kts | 4° |
| 2026-05-06 06:18 | 8.79728 | 99.35870 | 33091 ft | 498 kts | 4° |
| 2026-05-06 06:18 | 8.83160 | 99.36040 | 33499 ft | 497 kts | 4° |
| 2026-05-06 06:19 | 8.86642 | 99.36213 | 33916 ft | 496 kts | 4° |
| 2026-05-06 06:19 | 8.90058 | 99.36384 | 34323 ft | 495 kts | 4° |
| 2026-05-06 06:19 | 8.93513 | 99.36556 | 34707 ft | 494 kts | 4° |
| 2026-05-06 06:19 | 8.96939 | 99.36726 | 34856 ft | 497 kts | 4° |
| 2026-05-06 06:20 | 9.03860 | 99.37072 | 34833 ft | 495 kts | 4° |
| 2026-05-06 06:20 | 9.10663 | 99.37415 | 34836 ft | 491 kts | 4° |
| 2026-05-06 06:21 | 9.17480 | 99.37763 | 34832 ft | 490 kts | 4° |
| 2026-05-06 06:21 | 9.24271 | 99.38362 | 34842 ft | 489 kts | 10° |
| 2026-05-06 06:22 | 9.30875 | 99.40112 | 34839 ft | 489 kts | 18° |
| 2026-05-06 06:22 | 9.37353 | 99.42222 | 34834 ft | 490 kts | 18° |
| 2026-05-06 06:23 | 9.43879 | 99.44257 | 34844 ft | 491 kts | 18° |
| 2026-05-06 06:23 | 9.50411 | 99.46281 | 34843 ft | 492 kts | 18° |
| 2026-05-06 06:24 | 9.56949 | 99.48314 | 34853 ft | 492 kts | 18° |
| 2026-05-06 06:24 | 9.63506 | 99.50354 | 34853 ft | 493 kts | 18° |
| 2026-05-06 06:25 | 9.70051 | 99.52394 | 34858 ft | 493 kts | 18° |
| 2026-05-06 06:26 | 9.79905 | 99.55464 | 34860 ft | 493 kts | 18° |
| 2026-05-06 06:26 | 9.86445 | 99.57505 | 34860 ft | 492 kts | 18° |
| 2026-05-06 06:27 | 9.93015 | 99.59552 | 34860 ft | 492 kts | 18° |
| 2026-05-06 06:27 | 9.99515 | 99.61579 | 34862 ft | 492 kts | 18° |
| 2026-05-06 06:28 | 10.06076 | 99.63627 | 34859 ft | 491 kts | 17° |
| 2026-05-06 06:28 | 10.12580 | 99.65656 | 34863 ft | 491 kts | 18° |
| 2026-05-06 06:29 | 10.19137 | 99.67706 | 34867 ft | 491 kts | 18° |
| 2026-05-06 06:29 | 10.25638 | 99.69739 | 34871 ft | 491 kts | 18° |
| 2026-05-06 06:30 | 10.32203 | 99.71791 | 34862 ft | 492 kts | 18° |
| 2026-05-06 06:30 | 10.38740 | 99.73835 | 34863 ft | 492 kts | 18° |
| 2026-05-06 06:31 | 10.45277 | 99.75880 | 34861 ft | 492 kts | 17° |
| 2026-05-06 06:31 | 10.51825 | 99.77931 | 34860 ft | 492 kts | 17° |
| 2026-05-06 06:32 | 10.58373 | 99.79979 | 34862 ft | 493 kts | 17° |
| 2026-05-06 06:32 | 10.64922 | 99.82033 | 34860 ft | 493 kts | 17° |
| 2026-05-06 06:33 | 10.71488 | 99.84094 | 34863 ft | 493 kts | 17° |
| 2026-05-06 06:33 | 10.78036 | 99.86146 | 34860 ft | 493 kts | 17° |
| 2026-05-06 06:34 | 10.84588 | 99.88203 | 34862 ft | 493 kts | 17° |
| 2026-05-06 06:34 | 10.90971 | 99.90729 | 34857 ft | 492 kts | 28° |
| 2026-05-06 06:35 | 10.96955 | 99.94111 | 34865 ft | 493 kts | 29° |
| 2026-05-06 06:35 | 11.02923 | 99.97531 | 34861 ft | 493 kts | 29° |
| 2026-05-06 06:36 | 11.08924 | 100.00928 | 34863 ft | 494 kts | 29° |
| 2026-05-06 06:36 | 11.14922 | 100.04299 | 34861 ft | 494 kts | 28° |
| 2026-05-06 06:37 | 11.20950 | 100.07685 | 34861 ft | 494 kts | 28° |
| 2026-05-06 06:37 | 11.26945 | 100.11057 | 34862 ft | 495 kts | 28° |
| 2026-05-06 06:38 | 11.32970 | 100.14451 | 34861 ft | 495 kts | 28° |
| 2026-05-06 06:38 | 11.39014 | 100.17853 | 34861 ft | 496 kts | 28° |
| 2026-05-06 06:39 | 11.45039 | 100.21250 | 34860 ft | 496 kts | 28° |
| 2026-05-06 06:39 | 11.51067 | 100.24651 | 34862 ft | 496 kts | 28° |
| 2026-05-06 06:40 | 11.57096 | 100.28052 | 34860 ft | 496 kts | 28° |
| 2026-05-06 06:40 | 11.63159 | 100.31480 | 34860 ft | 496 kts | 28° |
| 2026-05-06 06:41 | 11.69202 | 100.34903 | 34862 ft | 497 kts | 28° |
| 2026-05-06 06:41 | 11.75238 | 100.38324 | 34861 ft | 497 kts | 28° |
| 2026-05-06 06:42 | 11.81266 | 100.41722 | 34860 ft | 496 kts | 26° |
| 2026-05-06 06:42 | 11.87762 | 100.43983 | 34865 ft | 494 kts | 11° |
| 2026-05-06 06:43 | 11.94591 | 100.44577 | 34871 ft | 493 kts | 0° |
| 2026-05-06 06:43 | 12.01486 | 100.44667 | 34860 ft | 494 kts | 0° |
| 2026-05-06 06:44 | 12.08364 | 100.44779 | 34862 ft | 494 kts | 0° |
| 2026-05-06 06:44 | 12.15221 | 100.44935 | 34861 ft | 494 kts | 1° |
| 2026-05-06 06:45 | 12.22089 | 100.45113 | 34862 ft | 494 kts | 1° |
| 2026-05-06 06:45 | 12.28948 | 100.45290 | 34858 ft | 494 kts | 1° |
| 2026-05-06 06:46 | 12.35851 | 100.45463 | 34862 ft | 494 kts | 1° |
| 2026-05-06 06:46 | 12.42701 | 100.45635 | 34860 ft | 494 kts | 1° |
| 2026-05-06 06:47 | 12.49574 | 100.45809 | 34862 ft | 494 kts | 1° |
| 2026-05-06 06:47 | 12.56431 | 100.45981 | 34861 ft | 494 kts | 1° |
| 2026-05-06 06:48 | 12.63322 | 100.46153 | 34861 ft | 494 kts | 1° |
| 2026-05-06 06:48 | 12.70181 | 100.46327 | 34857 ft | 494 kts | 1° |
| 2026-05-06 06:49 | 12.77035 | 100.46500 | 34849 ft | 493 kts | 1° |
| 2026-05-06 06:49 | 12.83891 | 100.46672 | 34853 ft | 493 kts | 1° |
| 2026-05-06 06:50 | 12.90743 | 100.46846 | 34851 ft | 493 kts | 1° |
| 2026-05-06 06:50 | 12.97598 | 100.47019 | 34852 ft | 493 kts | 1° |
| 2026-05-06 06:51 | 13.04465 | 100.47192 | 34849 ft | 492 kts | 1° |
| 2026-05-06 06:51 | 13.07864 | 100.47550 | 34835 ft | 489 kts | 13° |
| 2026-05-06 06:51 | 13.11011 | 100.48768 | 34830 ft | 488 kts | 30° |
| 2026-05-06 06:52 | 13.16472 | 100.52845 | 34847 ft | 488 kts | 36° |
| 2026-05-06 06:52 | 13.21990 | 100.56932 | 34846 ft | 491 kts | 35° |
| 2026-05-06 06:53 | 13.26665 | 100.60309 | 34845 ft | 492 kts | 35° |
| 2026-05-06 06:53 | 13.32258 | 100.64344 | 34833 ft | 492 kts | 35° |
| 2026-05-06 06:54 | 13.37850 | 100.68384 | 34830 ft | 492 kts | 35° |
| 2026-05-06 06:54 | 13.43461 | 100.72441 | 34833 ft | 491 kts | 35° |
| 2026-05-06 06:55 | 13.49029 | 100.76476 | 34832 ft | 489 kts | 35° |
| 2026-05-06 06:55 | 13.54668 | 100.80310 | 34834 ft | 488 kts | 27° |
| 2026-05-06 06:56 | 13.61022 | 100.82664 | 34836 ft | 486 kts | 12° |
| 2026-05-06 06:56 | 13.64307 | 100.83433 | 34813 ft | 475 kts | 13° |
| 2026-05-06 06:56 | 13.67426 | 100.84243 | 34815 ft | 460 kts | 14° |
| 2026-05-06 06:56 | 13.70488 | 100.85085 | 34812 ft | 444 kts | 15° |
| 2026-05-06 06:57 | 13.73395 | 100.85895 | 34801 ft | 429 kts | 15° |
| 2026-05-06 06:57 | 13.79107 | 100.87477 | 34835 ft | 426 kts | 14° |
| 2026-05-06 06:58 | 13.84847 | 100.89049 | 34835 ft | 424 kts | 14° |
| 2026-05-06 06:58 | 13.90520 | 100.90604 | 34832 ft | 423 kts | 14° |
| 2026-05-06 06:59 | 13.96232 | 100.92170 | 34832 ft | 422 kts | 14° |
| 2026-05-06 06:59 | 14.01937 | 100.93506 | 34816 ft | 417 kts | 359° |
| 2026-05-06 06:59 | 14.04748 | 100.93075 | 34842 ft | 415 kts | 340° |
| 2026-05-06 07:00 | 14.07315 | 100.91713 | 34844 ft | 415 kts | 322° |
| 2026-05-06 07:00 | 14.09389 | 100.89640 | 34844 ft | 413 kts | 307° |
| 2026-05-06 07:00 | 14.10852 | 100.87164 | 34808 ft | 403 kts | 290° |
| 2026-05-06 07:00 | 14.11381 | 100.84360 | 34826 ft | 396 kts | 266° |
| 2026-05-06 07:01 | 14.10751 | 100.81659 | 34838 ft | 394 kts | 242° |
| 2026-05-06 07:01 | 14.09052 | 100.79427 | 34845 ft | 398 kts | 217° |
| 2026-05-06 07:01 | 14.06616 | 100.78121 | 34833 ft | 401 kts | 193° |
| 2026-05-06 07:01 | 14.03829 | 100.77961 | 34843 ft | 403 kts | 168° |
| 2026-05-06 07:02 | 14.01162 | 100.78775 | 34855 ft | 407 kts | 160° |
| 2026-05-06 07:02 | 13.95628 | 100.80084 | 34825 ft | 404 kts | 180° |
| 2026-05-06 07:03 | 13.90161 | 100.79274 | 34842 ft | 397 kts | 195° |
| 2026-05-06 07:03 | 13.84809 | 100.77764 | 34843 ft | 401 kts | 195° |
| 2026-05-06 07:04 | 13.79389 | 100.76304 | 34837 ft | 403 kts | 194° |
| 2026-05-06 07:04 | 13.73954 | 100.74880 | 34831 ft | 403 kts | 194° |
| 2026-05-06 07:05 | 13.68521 | 100.73452 | 34832 ft | 403 kts | 194° |
| 2026-05-06 07:05 | 13.63364 | 100.71450 | 34842 ft | 395 kts | 219° |
| 2026-05-06 07:05 | 13.61467 | 100.69448 | 34845 ft | 397 kts | 231° |
| 2026-05-06 07:06 | 13.59720 | 100.67210 | 34846 ft | 401 kts | 231° |
| 2026-05-06 07:06 | 13.55993 | 100.62999 | 34810 ft | 398 kts | 212° |
| 2026-05-06 07:06 | 13.53514 | 100.61802 | 34841 ft | 397 kts | 195° |
| 2026-05-06 07:07 | 13.50768 | 100.61445 | 34834 ft | 399 kts | 174° |
| 2026-05-06 07:07 | 13.48104 | 100.62207 | 34835 ft | 400 kts | 149° |
| 2026-05-06 07:07 | 13.46002 | 100.64009 | 34842 ft | 401 kts | 125° |
| 2026-05-06 07:07 | 13.44780 | 100.66593 | 34842 ft | 402 kts | 101° |
| 2026-05-06 07:08 | 13.44700 | 100.69442 | 34835 ft | 402 kts | 78° |
| 2026-05-06 07:08 | 13.45925 | 100.75063 | 34832 ft | 408 kts | 86° |
| 2026-05-06 07:09 | 13.45424 | 100.80841 | 34819 ft | 404 kts | 103° |
| 2026-05-06 07:09 | 13.44005 | 100.86347 | 34832 ft | 398 kts | 105° |
| 2026-05-06 07:10 | 13.43499 | 100.92025 | 34856 ft | 414 kts | 72° |
| 2026-05-06 07:10 | 13.44804 | 100.94657 | 34818 ft | 412 kts | 48° |
| 2026-05-06 07:10 | 13.46989 | 100.96477 | 34818 ft | 399 kts | 24° |
| 2026-05-06 07:10 | 13.49605 | 100.97179 | 34813 ft | 390 kts | 359° |
| 2026-05-06 07:11 | 13.52270 | 100.96733 | 34857 ft | 390 kts | 341° |
| 2026-05-06 07:11 | 13.57574 | 100.95222 | 34839 ft | 401 kts | 355° |
| 2026-05-06 07:11 | 13.60340 | 100.95206 | 34835 ft | 399 kts | 6° |
| 2026-05-06 07:12 | 13.63080 | 100.95650 | 34840 ft | 398 kts | 12° |
| 2026-05-06 07:12 | 13.68417 | 100.97078 | 34834 ft | 396 kts | 15° |
| 2026-05-06 07:13 | 13.73765 | 100.98543 | 34829 ft | 395 kts | 14° |
| 2026-05-06 07:13 | 13.79060 | 100.99955 | 34848 ft | 398 kts | 14° |
| 2026-05-06 07:14 | 13.84460 | 101.01395 | 34832 ft | 400 kts | 14° |
| 2026-05-06 07:14 | 13.89808 | 101.02942 | 34814 ft | 402 kts | 25° |
| 2026-05-06 07:14 | 13.92131 | 101.04514 | 34847 ft | 408 kts | 44° |
| 2026-05-06 07:15 | 13.93862 | 101.06836 | 34837 ft | 412 kts | 64° |
| 2026-05-06 07:15 | 13.94758 | 101.09642 | 34834 ft | 412 kts | 83° |
| 2026-05-06 07:15 | 13.94699 | 101.12556 | 34830 ft | 412 kts | 103° |
| 2026-05-06 07:15 | 13.93704 | 101.15297 | 34832 ft | 412 kts | 122° |
| 2026-05-06 07:16 | 13.91874 | 101.17558 | 34834 ft | 411 kts | 141° |
| 2026-05-06 07:16 | 13.89448 | 101.19055 | 34831 ft | 410 kts | 161° |
| 2026-05-06 07:16 | 13.86650 | 101.19673 | 34842 ft | 409 kts | 178° |
| 2026-05-06 07:16 | 13.83827 | 101.19390 | 34832 ft | 407 kts | 195° |
| 2026-05-06 07:17 | 13.81120 | 101.18633 | 34841 ft | 408 kts | 196° |
| 2026-05-06 07:17 | 13.75629 | 101.17084 | 34843 ft | 411 kts | 195° |
| 2026-05-06 07:18 | 13.70316 | 101.15023 | 34835 ft | 407 kts | 220° |
| 2026-05-06 07:18 | 13.68437 | 101.12870 | 34835 ft | 405 kts | 240° |
| 2026-05-06 07:18 | 13.67376 | 101.10227 | 34836 ft | 405 kts | 259° |
| 2026-05-06 07:18 | 13.67176 | 101.07337 | 34836 ft | 404 kts | 277° |
| 2026-05-06 07:19 | 13.67870 | 101.04545 | 34833 ft | 404 kts | 295° |
| 2026-05-06 07:19 | 13.69387 | 101.02154 | 34830 ft | 405 kts | 314° |
| 2026-05-06 07:19 | 13.71614 | 101.00379 | 34834 ft | 405 kts | 334° |
| 2026-05-06 07:19 | 13.74256 | 100.99463 | 34839 ft | 405 kts | 351° |
| 2026-05-06 07:20 | 13.77061 | 100.99389 | 34828 ft | 407 kts | 9° |
| 2026-05-06 07:20 | 13.82557 | 101.00858 | 34838 ft | 409 kts | 15° |
| 2026-05-06 07:21 | 13.88054 | 101.02364 | 34840 ft | 412 kts | 14° |
| 2026-05-06 07:21 | 13.90747 | 101.03360 | 34820 ft | 410 kts | 31° |
| 2026-05-06 07:21 | 13.92917 | 101.05192 | 34841 ft | 410 kts | 50° |
| 2026-05-06 07:21 | 13.94421 | 101.07689 | 34833 ft | 410 kts | 69° |
| 2026-05-06 07:22 | 13.95109 | 101.10509 | 34835 ft | 410 kts | 86° |
| 2026-05-06 07:22 | 13.94932 | 101.13450 | 34831 ft | 410 kts | 104° |
| 2026-05-06 07:22 | 13.93894 | 101.16146 | 34830 ft | 410 kts | 122° |
| 2026-05-06 07:22 | 13.92060 | 101.18396 | 34831 ft | 410 kts | 141° |
| 2026-05-06 07:23 | 13.89634 | 101.19927 | 34833 ft | 409 kts | 160° |
| 2026-05-06 07:23 | 13.86907 | 101.20617 | 34844 ft | 408 kts | 175° |
| 2026-05-06 07:23 | 13.84064 | 101.20495 | 34827 ft | 407 kts | 193° |
| 2026-05-06 07:24 | 13.78602 | 101.18968 | 34841 ft | 409 kts | 196° |
| 2026-05-06 07:24 | 13.73075 | 101.17464 | 34837 ft | 412 kts | 195° |
| 2026-05-06 07:24 | 13.70425 | 101.16407 | 34808 ft | 408 kts | 214° |
| 2026-05-06 07:25 | 13.68319 | 101.14516 | 34841 ft | 407 kts | 233° |
| 2026-05-06 07:25 | 13.66903 | 101.12024 | 34842 ft | 406 kts | 250° |
| 2026-05-06 07:25 | 13.66277 | 101.09203 | 34835 ft | 406 kts | 268° |
| 2026-05-06 07:25 | 13.66507 | 101.06298 | 34832 ft | 406 kts | 285° |
| 2026-05-06 07:26 | 13.67572 | 101.03658 | 34840 ft | 405 kts | 303° |
| 2026-05-06 07:26 | 13.69409 | 101.01458 | 34836 ft | 406 kts | 321° |
| 2026-05-06 07:26 | 13.71791 | 100.99977 | 34834 ft | 406 kts | 340° |
| 2026-05-06 07:26 | 13.74550 | 100.99287 | 34845 ft | 407 kts | 355° |
| 2026-05-06 07:27 | 13.77355 | 100.99414 | 34825 ft | 406 kts | 13° |
| 2026-05-06 07:27 | 13.82839 | 101.00947 | 34841 ft | 409 kts | 15° |
| 2026-05-06 07:28 | 13.88351 | 101.02443 | 34838 ft | 411 kts | 14° |
| 2026-05-06 07:28 | 13.90978 | 101.03495 | 34824 ft | 409 kts | 33° |
| 2026-05-06 07:28 | 13.94520 | 101.07962 | 34836 ft | 409 kts | 71° |
| 2026-05-06 07:29 | 13.95118 | 101.10792 | 34838 ft | 409 kts | 88° |
| 2026-05-06 07:29 | 13.94855 | 101.13715 | 34833 ft | 409 kts | 106° |
| 2026-05-06 07:29 | 13.93740 | 101.16368 | 34834 ft | 409 kts | 124° |
| 2026-05-06 07:29 | 13.91847 | 101.18552 | 34842 ft | 408 kts | 143° |
| 2026-05-06 07:30 | 13.89404 | 101.19995 | 34836 ft | 408 kts | 161° |
| 2026-05-06 07:30 | 13.86622 | 101.20621 | 34845 ft | 408 kts | 177° |
| 2026-05-06 07:30 | 13.83835 | 101.20423 | 34826 ft | 406 kts | 194° |
| 2026-05-06 07:30 | 13.81081 | 101.19669 | 34843 ft | 408 kts | 196° |
| 2026-05-06 07:31 | 13.75595 | 101.18108 | 34842 ft | 412 kts | 195° |
| 2026-05-06 07:31 | 13.70196 | 101.16233 | 34813 ft | 409 kts | 216° |
| 2026-05-06 07:32 | 13.68126 | 101.14237 | 34838 ft | 408 kts | 235° |
| 2026-05-06 07:32 | 13.66803 | 101.11705 | 34834 ft | 407 kts | 252° |
| 2026-05-06 07:32 | 13.66274 | 101.08879 | 34835 ft | 406 kts | 270° |
| 2026-05-06 07:32 | 13.66599 | 101.05997 | 34830 ft | 406 kts | 287° |
| 2026-05-06 07:33 | 13.67765 | 101.03372 | 34831 ft | 406 kts | 305° |
| 2026-05-06 07:33 | 13.69682 | 101.01242 | 34837 ft | 406 kts | 323° |
| 2026-05-06 07:33 | 13.72118 | 100.99854 | 34834 ft | 406 kts | 342° |
| 2026-05-06 07:33 | 13.74890 | 100.99257 | 34845 ft | 406 kts | 357° |
| 2026-05-06 07:34 | 13.77714 | 100.99496 | 34826 ft | 406 kts | 13° |
| 2026-05-06 07:34 | 13.80422 | 101.00243 | 34841 ft | 407 kts | 15° |
| 2026-05-06 07:34 | 13.85898 | 101.01793 | 34842 ft | 410 kts | 14° |
| 2026-05-06 07:35 | 13.91256 | 101.03686 | 34825 ft | 408 kts | 36° |
| 2026-05-06 07:35 | 13.93312 | 101.05713 | 34838 ft | 408 kts | 55° |
| 2026-05-06 07:35 | 13.94612 | 101.08269 | 34839 ft | 408 kts | 72° |
| 2026-05-06 07:36 | 13.95109 | 101.11147 | 34837 ft | 409 kts | 90° |
| 2026-05-06 07:36 | 13.94733 | 101.14026 | 34832 ft | 409 kts | 108° |
| 2026-05-06 07:36 | 13.93497 | 101.16653 | 34830 ft | 409 kts | 127° |
| 2026-05-06 07:36 | 13.91530 | 101.18728 | 34834 ft | 408 kts | 145° |
| 2026-05-06 07:37 | 13.88998 | 101.20069 | 34830 ft | 408 kts | 164° |
| 2026-05-06 07:37 | 13.86237 | 101.20574 | 34845 ft | 408 kts | 179° |
| 2026-05-06 07:37 | 13.83414 | 101.20238 | 34837 ft | 406 kts | 195° |
| 2026-05-06 07:37 | 13.80708 | 101.19474 | 34839 ft | 408 kts | 196° |
| 2026-05-06 07:38 | 13.75226 | 101.17929 | 34842 ft | 412 kts | 195° |
| 2026-05-06 07:38 | 13.69890 | 101.15921 | 34837 ft | 409 kts | 219° |
| 2026-05-06 07:39 | 13.67926 | 101.13820 | 34836 ft | 408 kts | 238° |
| 2026-05-06 07:39 | 13.66728 | 101.11215 | 34841 ft | 407 kts | 255° |
| 2026-05-06 07:39 | 13.66338 | 101.08339 | 34840 ft | 407 kts | 272° |
| 2026-05-06 07:39 | 13.66813 | 101.05476 | 34833 ft | 407 kts | 290° |
| 2026-05-06 07:40 | 13.68138 | 101.02903 | 34832 ft | 407 kts | 309° |
| 2026-05-06 07:40 | 13.70157 | 101.00914 | 34834 ft | 406 kts | 327° |
| 2026-05-06 07:40 | 13.72715 | 100.99668 | 34833 ft | 407 kts | 345° |
| 2026-05-06 07:40 | 13.75479 | 100.99233 | 34842 ft | 408 kts | 0° |
| 2026-05-06 07:41 | 13.78296 | 100.99647 | 34844 ft | 406 kts | 15° |
| 2026-05-06 07:41 | 13.80997 | 101.00417 | 34839 ft | 408 kts | 15° |
| 2026-05-06 07:41 | 13.86496 | 101.01953 | 34841 ft | 411 kts | 14° |
| 2026-05-06 07:42 | 13.91759 | 101.04063 | 34838 ft | 408 kts | 40° |
| 2026-05-06 07:42 | 13.93664 | 101.06233 | 34834 ft | 408 kts | 59° |
| 2026-05-06 07:42 | 13.94799 | 101.08879 | 34835 ft | 408 kts | 76° |
| 2026-05-06 07:43 | 13.95115 | 101.11778 | 34834 ft | 408 kts | 94° |
| 2026-05-06 07:43 | 13.94552 | 101.14636 | 34831 ft | 409 kts | 112° |
| 2026-05-06 07:43 | 13.93142 | 101.17170 | 34830 ft | 408 kts | 131° |
| 2026-05-06 07:43 | 13.91048 | 101.19098 | 34835 ft | 408 kts | 149° |
| 2026-05-06 07:44 | 13.88443 | 101.20261 | 34832 ft | 407 kts | 167° |
| 2026-05-06 07:44 | 13.85663 | 101.20613 | 34840 ft | 407 kts | 183° |
| 2026-05-06 07:44 | 13.82868 | 101.20131 | 34850 ft | 405 kts | 195° |
| 2026-05-06 07:44 | 13.80157 | 101.19353 | 34835 ft | 408 kts | 196° |
| 2026-05-06 07:45 | 13.75571 | 101.18057 | 34831 ft | 411 kts | 195° |
| 2026-05-06 07:45 | 13.69435 | 101.15595 | 34810 ft | 409 kts | 223° |
| 2026-05-06 07:46 | 13.68140 | 101.14183 | 34809 ft | 408 kts | 235° |
| 2026-05-06 07:46 | 13.66812 | 101.11601 | 34807 ft | 408 kts | 253° |
| 2026-05-06 07:46 | 13.66309 | 101.08771 | 34812 ft | 408 kts | 270° |
| 2026-05-06 07:46 | 13.66659 | 101.05891 | 34799 ft | 407 kts | 288° |
| 2026-05-06 07:47 | 13.67874 | 101.03242 | 34797 ft | 407 kts | 306° |
| 2026-05-06 07:47 | 13.69812 | 101.01153 | 34810 ft | 407 kts | 324° |
| 2026-05-06 07:47 | 13.72317 | 100.99790 | 34811 ft | 407 kts | 343° |
| 2026-05-06 07:47 | 13.75076 | 100.99247 | 34830 ft | 407 kts | 358° |
| 2026-05-06 07:48 | 13.77858 | 100.99532 | 34812 ft | 407 kts | 14° |
| 2026-05-06 07:48 | 13.80614 | 101.00301 | 34821 ft | 408 kts | 15° |
| 2026-05-06 07:48 | 13.86100 | 101.01848 | 34819 ft | 410 kts | 14° |
| 2026-05-06 07:49 | 13.91430 | 101.03808 | 34814 ft | 408 kts | 37° |
| 2026-05-06 07:49 | 13.93428 | 101.05876 | 34820 ft | 408 kts | 56° |
| 2026-05-06 07:49 | 13.94675 | 101.08454 | 34809 ft | 408 kts | 74° |
| 2026-05-06 07:50 | 13.95116 | 101.11337 | 34814 ft | 408 kts | 91° |
| 2026-05-06 07:50 | 13.94690 | 101.14195 | 34802 ft | 408 kts | 109° |
| 2026-05-06 07:50 | 13.93406 | 101.16800 | 34801 ft | 408 kts | 128° |
| 2026-05-06 07:50 | 13.91386 | 101.18848 | 34822 ft | 407 kts | 146° |
| 2026-05-06 07:51 | 13.88878 | 101.20121 | 34811 ft | 407 kts | 165° |
| 2026-05-06 07:51 | 13.86074 | 101.20597 | 34823 ft | 407 kts | 180° |
| 2026-05-06 07:51 | 13.83302 | 101.20228 | 34812 ft | 405 kts | 195° |
| 2026-05-06 07:51 | 13.80576 | 101.19456 | 34817 ft | 408 kts | 196° |
| 2026-05-06 07:52 | 13.75053 | 101.17902 | 34819 ft | 412 kts | 195° |
| 2026-05-06 07:52 | 13.69748 | 101.15835 | 34804 ft | 409 kts | 220° |
| 2026-05-06 07:53 | 13.67829 | 101.13706 | 34831 ft | 408 kts | 239° |
| 2026-05-06 07:53 | 13.66659 | 101.11057 | 34803 ft | 408 kts | 256° |
| 2026-05-06 07:53 | 13.66320 | 101.08181 | 34817 ft | 408 kts | 274° |
| 2026-05-06 07:53 | 13.66836 | 101.05352 | 34797 ft | 408 kts | 291° |
| 2026-05-06 07:54 | 13.68205 | 101.02790 | 34800 ft | 408 kts | 310° |
| 2026-05-06 07:54 | 13.70252 | 101.00836 | 34806 ft | 407 kts | 328° |
| 2026-05-06 07:54 | 13.72831 | 100.99629 | 34814 ft | 407 kts | 346° |
| 2026-05-06 07:54 | 13.75651 | 100.99230 | 34809 ft | 408 kts | 1° |
| 2026-05-06 07:55 | 13.78426 | 100.99677 | 34829 ft | 407 kts | 15° |
| 2026-05-06 07:55 | 13.81176 | 101.00463 | 34807 ft | 409 kts | 15° |
| 2026-05-06 07:55 | 13.86666 | 101.01998 | 34813 ft | 411 kts | 14° |
| 2026-05-06 07:56 | 13.91886 | 101.04163 | 34803 ft | 408 kts | 41° |
| 2026-05-06 07:56 | 13.93728 | 101.06341 | 34816 ft | 408 kts | 60° |
| 2026-05-06 07:56 | 13.94834 | 101.09040 | 34807 ft | 408 kts | 77° |
| 2026-05-06 07:57 | 13.95098 | 101.11909 | 34800 ft | 408 kts | 95° |
| 2026-05-06 07:57 | 13.94489 | 101.14770 | 34796 ft | 408 kts | 113° |
| 2026-05-06 07:57 | 13.93062 | 101.17251 | 34805 ft | 408 kts | 131° |
| 2026-05-06 07:57 | 13.90924 | 101.19162 | 34811 ft | 407 kts | 150° |
| 2026-05-06 07:58 | 13.88314 | 101.20278 | 34809 ft | 407 kts | 168° |
| 2026-05-06 07:58 | 13.85492 | 101.20593 | 34817 ft | 407 kts | 185° |
| 2026-05-06 07:58 | 13.80016 | 101.19290 | 34817 ft | 409 kts | 196° |
| 2026-05-06 07:59 | 13.74495 | 101.17752 | 34824 ft | 413 kts | 195° |
| 2026-05-06 07:59 | 13.69312 | 101.15456 | 34823 ft | 409 kts | 224° |
| 2026-05-06 08:00 | 13.67523 | 101.13181 | 34823 ft | 408 kts | 242° |
| 2026-05-06 08:00 | 13.66519 | 101.10463 | 34809 ft | 408 kts | 260° |
| 2026-05-06 08:00 | 13.66356 | 101.07585 | 34806 ft | 407 kts | 277° |
| 2026-05-06 08:00 | 13.67062 | 101.04768 | 34799 ft | 407 kts | 295° |
| 2026-05-06 08:01 | 13.68567 | 101.02348 | 34806 ft | 407 kts | 313° |
| 2026-05-06 08:01 | 13.70771 | 101.00509 | 34800 ft | 407 kts | 332° |
| 2026-05-06 08:01 | 13.73422 | 100.99481 | 34813 ft | 407 kts | 349° |
| 2026-05-06 08:01 | 13.76206 | 100.99250 | 34813 ft | 408 kts | 6° |
| 2026-05-06 08:02 | 13.81736 | 101.00627 | 34818 ft | 409 kts | 15° |
| 2026-05-06 08:02 | 13.87222 | 101.02146 | 34829 ft | 410 kts | 14° |
| 2026-05-06 08:03 | 13.89970 | 101.02970 | 34797 ft | 409 kts | 25° |
| 2026-05-06 08:03 | 13.92338 | 101.04576 | 34820 ft | 407 kts | 45° |
| 2026-05-06 08:03 | 13.94024 | 101.06876 | 34810 ft | 408 kts | 63° |
| 2026-05-06 08:03 | 13.94954 | 101.09637 | 34803 ft | 408 kts | 81° |
| 2026-05-06 08:04 | 13.95036 | 101.12517 | 34802 ft | 409 kts | 98° |
| 2026-05-06 08:04 | 13.94243 | 101.15322 | 34802 ft | 409 kts | 117° |
| 2026-05-06 08:04 | 13.92631 | 101.17720 | 34811 ft | 408 kts | 136° |
| 2026-05-06 08:04 | 13.90376 | 101.19462 | 34816 ft | 408 kts | 154° |
| 2026-05-06 08:05 | 13.87705 | 101.20390 | 34810 ft | 407 kts | 171° |
| 2026-05-06 08:05 | 13.84864 | 101.20518 | 34807 ft | 407 kts | 189° |
| 2026-05-06 08:05 | 13.79379 | 101.19078 | 34810 ft | 409 kts | 196° |
| 2026-05-06 08:06 | 13.73867 | 101.17558 | 34824 ft | 413 kts | 195° |
| 2026-05-06 08:06 | 13.71143 | 101.16679 | 34801 ft | 411 kts | 208° |
| 2026-05-06 08:06 | 13.68837 | 101.14959 | 34822 ft | 409 kts | 228° |
| 2026-05-06 08:07 | 13.67244 | 101.12579 | 34815 ft | 407 kts | 246° |
| 2026-05-06 08:07 | 13.66429 | 101.09789 | 34803 ft | 407 kts | 264° |
| 2026-05-06 08:07 | 13.66467 | 101.06896 | 34804 ft | 407 kts | 281° |
| 2026-05-06 08:07 | 13.67361 | 101.04170 | 34806 ft | 407 kts | 299° |
| 2026-05-06 08:08 | 13.69057 | 101.01844 | 34798 ft | 407 kts | 317° |
| 2026-05-06 08:08 | 13.71378 | 101.00192 | 34809 ft | 407 kts | 336° |
| 2026-05-06 08:08 | 13.74090 | 100.99359 | 34830 ft | 407 kts | 352° |
| 2026-05-06 08:08 | 13.76887 | 100.99329 | 34803 ft | 408 kts | 10° |
| 2026-05-06 08:09 | 13.82393 | 101.00817 | 34811 ft | 409 kts | 15° |
| 2026-05-06 08:09 | 13.87895 | 101.02323 | 34821 ft | 410 kts | 14° |
| 2026-05-06 08:10 | 13.90571 | 101.03264 | 34799 ft | 408 kts | 30° |
| 2026-05-06 08:10 | 13.92770 | 101.05040 | 34820 ft | 407 kts | 49° |
| 2026-05-06 08:10 | 13.94315 | 101.07506 | 34818 ft | 408 kts | 68° |
| 2026-05-06 08:10 | 13.95042 | 101.10295 | 34811 ft | 408 kts | 85° |
| 2026-05-06 08:11 | 13.94916 | 101.13209 | 34807 ft | 409 kts | 103° |
| 2026-05-06 08:11 | 13.93908 | 101.15950 | 34798 ft | 409 kts | 122° |
| 2026-05-06 08:11 | 13.92136 | 101.18187 | 34815 ft | 408 kts | 140° |
| 2026-05-06 08:11 | 13.89741 | 101.19752 | 34818 ft | 407 kts | 159° |
| 2026-05-06 08:12 | 13.87026 | 101.20472 | 34829 ft | 407 kts | 175° |
| 2026-05-06 08:12 | 13.84193 | 101.20384 | 34808 ft | 407 kts | 193° |
| 2026-05-06 08:12 | 13.78736 | 101.18863 | 34814 ft | 409 kts | 196° |
| 2026-05-06 08:13 | 13.73208 | 101.17359 | 34825 ft | 413 kts | 195° |
| 2026-05-06 08:13 | 13.70532 | 101.16311 | 34803 ft | 410 kts | 213° |
| 2026-05-06 08:13 | 13.68405 | 101.14412 | 34821 ft | 408 kts | 233° |
| 2026-05-06 08:14 | 13.66996 | 101.11917 | 34818 ft | 407 kts | 251° |
| 2026-05-06 08:14 | 13.66382 | 101.09067 | 34807 ft | 407 kts | 268° |
| 2026-05-06 08:14 | 13.66639 | 101.06165 | 34800 ft | 407 kts | 286° |
| 2026-05-06 08:14 | 13.67739 | 101.03529 | 34808 ft | 407 kts | 304° |
| 2026-05-06 08:15 | 13.69626 | 101.01341 | 34807 ft | 407 kts | 322° |
| 2026-05-06 08:15 | 13.72041 | 100.99908 | 34801 ft | 407 kts | 341° |
| 2026-05-06 08:15 | 13.74799 | 100.99276 | 34811 ft | 407 kts | 356° |
| 2026-05-06 08:15 | 13.77629 | 100.99475 | 34805 ft | 407 kts | 13° |
| 2026-05-06 08:16 | 13.83104 | 101.01020 | 34811 ft | 409 kts | 15° |
| 2026-05-06 08:16 | 13.88632 | 101.02519 | 34814 ft | 410 kts | 15° |
| 2026-05-06 08:17 | 13.91213 | 101.03652 | 34796 ft | 408 kts | 35° |
| 2026-05-06 08:17 | 13.93281 | 101.05667 | 34814 ft | 408 kts | 54° |
| 2026-05-06 08:17 | 13.94591 | 101.08208 | 34803 ft | 408 kts | 72° |
| 2026-05-06 08:17 | 13.95106 | 101.11067 | 34812 ft | 408 kts | 90° |
| 2026-05-06 08:18 | 13.94758 | 101.13944 | 34811 ft | 408 kts | 108° |
| 2026-05-06 08:18 | 13.93538 | 101.16600 | 34793 ft | 408 kts | 126° |
| 2026-05-06 08:18 | 13.91601 | 101.18681 | 34811 ft | 408 kts | 144° |
| 2026-05-06 08:18 | 13.89092 | 101.20044 | 34805 ft | 408 kts | 163° |
| 2026-05-06 08:19 | 13.86337 | 101.20579 | 34818 ft | 408 kts | 179° |
| 2026-05-06 08:19 | 13.83525 | 101.20281 | 34797 ft | 407 kts | 194° |
| 2026-05-06 08:19 | 13.78055 | 101.18720 | 34812 ft | 410 kts | 195° |
| 2026-05-06 08:20 | 13.72528 | 101.17220 | 34808 ft | 411 kts | 197° |
| 2026-05-06 08:20 | 13.69937 | 101.15965 | 34799 ft | 409 kts | 218° |
| 2026-05-06 08:20 | 13.67968 | 101.13898 | 34812 ft | 408 kts | 237° |
| 2026-05-06 08:21 | 13.66731 | 101.11275 | 34807 ft | 407 kts | 255° |
| 2026-05-06 08:21 | 13.66324 | 101.08396 | 34803 ft | 407 kts | 272° |
| 2026-05-06 08:21 | 13.66778 | 101.05555 | 34798 ft | 407 kts | 290° |
| 2026-05-06 08:21 | 13.68060 | 101.03001 | 34802 ft | 406 kts | 308° |
| 2026-05-06 08:22 | 13.70081 | 101.00968 | 34805 ft | 406 kts | 326° |
| 2026-05-06 08:22 | 13.72627 | 100.99696 | 34806 ft | 406 kts | 345° |
| 2026-05-06 08:22 | 13.75397 | 100.99236 | 34817 ft | 407 kts | 360° |
| 2026-05-06 08:22 | 13.78184 | 100.99610 | 34815 ft | 406 kts | 14° |
| 2026-05-06 08:23 | 13.83669 | 101.01179 | 34805 ft | 409 kts | 15° |
| 2026-05-06 08:23 | 13.89184 | 101.02680 | 34805 ft | 409 kts | 18° |
| 2026-05-06 08:24 | 13.91682 | 101.03996 | 34807 ft | 408 kts | 39° |
| 2026-05-06 08:24 | 13.93604 | 101.06140 | 34802 ft | 408 kts | 58° |
| 2026-05-06 08:24 | 13.94764 | 101.08772 | 34807 ft | 408 kts | 76° |
| 2026-05-06 08:24 | 13.95106 | 101.11669 | 34805 ft | 408 kts | 93° |
| 2026-05-06 08:25 | 13.94583 | 101.14510 | 34804 ft | 409 kts | 111° |
| 2026-05-06 08:25 | 13.93216 | 101.17054 | 34803 ft | 409 kts | 130° |
| 2026-05-06 08:25 | 13.91125 | 101.19032 | 34815 ft | 408 kts | 148° |
| 2026-05-06 08:25 | 13.88532 | 101.20221 | 34807 ft | 408 kts | 167° |
| 2026-05-06 08:26 | 13.85751 | 101.20597 | 34807 ft | 408 kts | 182° |
| 2026-05-06 08:26 | 13.82949 | 101.20130 | 34822 ft | 406 kts | 195° |
| 2026-05-06 08:26 | 13.77484 | 101.18559 | 34804 ft | 410 kts | 195° |
| 2026-05-06 08:27 | 13.71956 | 101.17038 | 34805 ft | 411 kts | 201° |
| 2026-05-06 08:27 | 13.69480 | 101.15598 | 34816 ft | 409 kts | 222° |
| 2026-05-06 08:27 | 13.67642 | 101.13384 | 34812 ft | 408 kts | 241° |
| 2026-05-06 08:28 | 13.66584 | 101.10728 | 34806 ft | 407 kts | 258° |
| 2026-05-06 08:28 | 13.66344 | 101.07830 | 34815 ft | 407 kts | 276° |
| 2026-05-06 08:28 | 13.66981 | 101.04983 | 34802 ft | 407 kts | 294° |
| 2026-05-06 08:28 | 13.68422 | 101.02528 | 34801 ft | 406 kts | 312° |
| 2026-05-06 08:29 | 13.70544 | 101.00653 | 34807 ft | 406 kts | 330° |
| 2026-05-06 08:29 | 13.73152 | 100.99547 | 34805 ft | 406 kts | 347° |
| 2026-05-06 08:29 | 13.75960 | 100.99239 | 34806 ft | 407 kts | 4° |
| 2026-05-06 08:29 | 13.78748 | 100.99763 | 34822 ft | 406 kts | 15° |
| 2026-05-06 08:30 | 13.84190 | 101.01327 | 34810 ft | 409 kts | 15° |
| 2026-05-06 08:30 | 13.89718 | 101.02866 | 34797 ft | 409 kts | 22° |
| 2026-05-06 08:31 | 13.92116 | 101.04367 | 34801 ft | 408 kts | 43° |
| 2026-05-06 08:31 | 13.93901 | 101.06641 | 34803 ft | 408 kts | 62° |
| 2026-05-06 08:31 | 13.94904 | 101.09340 | 34819 ft | 408 kts | 79° |
| 2026-05-06 08:31 | 13.95078 | 101.12258 | 34806 ft | 409 kts | 97° |
| 2026-05-06 08:32 | 13.94380 | 101.15059 | 34800 ft | 409 kts | 115° |
| 2026-05-06 08:32 | 13.92847 | 101.17518 | 34800 ft | 409 kts | 134° |
| 2026-05-06 08:32 | 13.90634 | 101.19349 | 34813 ft | 408 kts | 152° |
| 2026-05-06 08:32 | 13.88006 | 101.20360 | 34810 ft | 408 kts | 169° |
| 2026-05-06 08:33 | 13.85164 | 101.20581 | 34801 ft | 408 kts | 187° |
| 2026-05-06 08:33 | 13.82385 | 101.19990 | 34818 ft | 407 kts | 196° |
| 2026-05-06 08:33 | 13.76924 | 101.18416 | 34819 ft | 411 kts | 195° |
| 2026-05-06 08:34 | 13.69054 | 101.15221 | 34809 ft | 408 kts | 226° |
| 2026-05-06 08:34 | 13.67358 | 101.12880 | 34801 ft | 407 kts | 244° |
| 2026-05-06 08:35 | 13.66454 | 101.10128 | 34802 ft | 406 kts | 262° |
| 2026-05-06 08:35 | 13.66392 | 101.07266 | 34812 ft | 406 kts | 279° |
| 2026-05-06 08:35 | 13.67190 | 101.04481 | 34800 ft | 406 kts | 297° |
| 2026-05-06 08:35 | 13.68775 | 101.02119 | 34810 ft | 406 kts | 315° |
| 2026-05-06 08:36 | 13.71022 | 101.00371 | 34810 ft | 406 kts | 334° |
| 2026-05-06 08:36 | 13.73666 | 100.99435 | 34805 ft | 406 kts | 350° |
| 2026-05-06 08:36 | 13.75538 | 100.99234 | 34819 ft | 406 kts | 1° |
| 2026-05-06 08:36 | 13.78327 | 100.99650 | 34815 ft | 406 kts | 14° |
| 2026-05-06 08:37 | 13.81957 | 101.00689 | 34811 ft | 408 kts | 15° |
| 2026-05-06 08:37 | 13.86550 | 101.01967 | 34810 ft | 410 kts | 14° |
| 2026-05-06 08:38 | 13.91789 | 101.04087 | 34798 ft | 408 kts | 40° |
| 2026-05-06 08:38 | 13.93680 | 101.06264 | 34801 ft | 408 kts | 59° |
| 2026-05-06 08:38 | 13.94811 | 101.08945 | 34818 ft | 409 kts | 77° |
| 2026-05-06 08:38 | 13.95103 | 101.11822 | 34814 ft | 409 kts | 94° |
| 2026-05-06 08:39 | 13.94520 | 101.14688 | 34801 ft | 409 kts | 112° |
| 2026-05-06 08:39 | 13.93106 | 101.17193 | 34804 ft | 409 kts | 131° |
| 2026-05-06 08:39 | 13.90966 | 101.19131 | 34803 ft | 409 kts | 150° |
| 2026-05-06 08:39 | 13.88388 | 101.20254 | 34800 ft | 409 kts | 167° |
| 2026-05-06 08:40 | 13.85552 | 101.20587 | 34804 ft | 408 kts | 184° |
| 2026-05-06 08:40 | 13.82784 | 101.20076 | 34821 ft | 406 kts | 195° |
| 2026-05-06 08:40 | 13.80054 | 101.19287 | 34816 ft | 409 kts | 196° |
| 2026-05-06 08:41 | 13.74540 | 101.17752 | 34818 ft | 412 kts | 195° |
| 2026-05-06 08:41 | 13.69353 | 101.15476 | 34812 ft | 408 kts | 223° |
| 2026-05-06 08:41 | 13.67570 | 101.13237 | 34807 ft | 407 kts | 242° |
| 2026-05-06 08:42 | 13.66543 | 101.10507 | 34813 ft | 407 kts | 259° |
| 2026-05-06 08:42 | 13.66363 | 101.07643 | 34800 ft | 407 kts | 277° |
| 2026-05-06 08:42 | 13.67050 | 101.04821 | 34806 ft | 406 kts | 295° |
| 2026-05-06 08:42 | 13.68538 | 101.02395 | 34809 ft | 406 kts | 313° |
| 2026-05-06 08:43 | 13.70720 | 101.00548 | 34801 ft | 406 kts | 331° |
| 2026-05-06 08:43 | 13.73356 | 100.99501 | 34804 ft | 406 kts | 348° |
| 2026-05-06 08:43 | 13.76148 | 100.99248 | 34807 ft | 406 kts | 5° |
| 2026-05-06 08:44 | 13.81639 | 101.00600 | 34808 ft | 407 kts | 15° |
| 2026-05-06 08:44 | 13.87117 | 101.02118 | 34817 ft | 410 kts | 14° |
| 2026-05-06 08:45 | 13.92253 | 101.04499 | 34802 ft | 408 kts | 44° |
| 2026-05-06 08:45 | 13.93967 | 101.06768 | 34813 ft | 408 kts | 63° |
| 2026-05-06 08:45 | 13.94930 | 101.09508 | 34810 ft | 409 kts | 80° |
| 2026-05-06 08:45 | 13.95044 | 101.12441 | 34815 ft | 409 kts | 98° |
| 2026-05-06 08:46 | 13.94283 | 101.15230 | 34809 ft | 409 kts | 116° |
| 2026-05-06 08:46 | 13.92694 | 101.17650 | 34800 ft | 409 kts | 135° |
| 2026-05-06 08:46 | 13.90459 | 101.19412 | 34807 ft | 409 kts | 154° |
| 2026-05-06 08:46 | 13.87760 | 101.20374 | 34806 ft | 409 kts | 171° |
| 2026-05-06 08:47 | 13.84956 | 101.20521 | 34805 ft | 409 kts | 188° |
| 2026-05-06 08:47 | 13.79444 | 101.19087 | 34801 ft | 409 kts | 196° |
| 2026-05-06 08:48 | 13.73915 | 101.17562 | 34815 ft | 413 kts | 195° |
| 2026-05-06 08:48 | 13.71208 | 101.16699 | 34786 ft | 410 kts | 207° |
| 2026-05-06 08:48 | 13.68901 | 101.15006 | 34799 ft | 408 kts | 228° |
| 2026-05-06 08:48 | 13.67277 | 101.12613 | 34810 ft | 406 kts | 246° |
| 2026-05-06 08:49 | 13.66457 | 101.09867 | 34820 ft | 406 kts | 263° |
| 2026-05-06 08:49 | 13.66467 | 101.06993 | 34813 ft | 406 kts | 281° |
| 2026-05-06 08:49 | 13.67346 | 101.04225 | 34798 ft | 406 kts | 299° |
| 2026-05-06 08:49 | 13.68998 | 101.01917 | 34800 ft | 406 kts | 317° |
| 2026-05-06 08:50 | 13.71301 | 101.00239 | 34807 ft | 406 kts | 335° |
| 2026-05-06 08:50 | 13.74004 | 100.99378 | 34816 ft | 406 kts | 352° |
| 2026-05-06 08:50 | 13.76800 | 100.99317 | 34800 ft | 407 kts | 9° |
| 2026-05-06 08:51 | 13.82268 | 101.00779 | 34808 ft | 409 kts | 15° |
| 2026-05-06 08:51 | 13.87792 | 101.02296 | 34806 ft | 411 kts | 14° |
| 2026-05-06 08:51 | 13.90499 | 101.03225 | 34788 ft | 409 kts | 29° |
| 2026-05-06 08:52 | 13.92723 | 101.04978 | 34806 ft | 408 kts | 49° |
| 2026-05-06 08:52 | 13.94276 | 101.07388 | 34805 ft | 408 kts | 67° |
| 2026-05-06 08:52 | 13.95051 | 101.10217 | 34807 ft | 409 kts | 84° |
| 2026-05-06 08:52 | 13.94962 | 101.13109 | 34802 ft | 409 kts | 102° |
| 2026-05-06 08:53 | 13.93996 | 101.15863 | 34805 ft | 410 kts | 121° |
| 2026-05-06 08:53 | 13.92257 | 101.18137 | 34802 ft | 409 kts | 139° |
| 2026-05-06 08:53 | 13.89872 | 101.19749 | 34809 ft | 408 kts | 158° |
| 2026-05-06 08:53 | 13.87168 | 101.20509 | 34806 ft | 408 kts | 174° |
| 2026-05-06 08:54 | 13.84320 | 101.20468 | 34801 ft | 407 kts | 192° |
| 2026-05-06 08:54 | 13.78833 | 101.18956 | 34811 ft | 410 kts | 196° |
| 2026-05-06 08:55 | 13.73327 | 101.17449 | 34813 ft | 413 kts | 194° |
| 2026-05-06 08:55 | 13.70642 | 101.16449 | 34794 ft | 410 kts | 212° |
| 2026-05-06 08:55 | 13.68459 | 101.14575 | 34818 ft | 407 kts | 232° |
| 2026-05-06 08:55 | 13.67012 | 101.12114 | 34801 ft | 406 kts | 250° |
| 2026-05-06 08:56 | 13.66351 | 101.09293 | 34811 ft | 405 kts | 267° |
| 2026-05-06 08:56 | 13.66538 | 101.06431 | 34811 ft | 405 kts | 284° |
| 2026-05-06 08:56 | 13.67581 | 101.03737 | 34798 ft | 405 kts | 302° |
| 2026-05-06 08:56 | 13.69373 | 101.01536 | 34798 ft | 405 kts | 321° |
| 2026-05-06 08:57 | 13.71777 | 101.00006 | 34806 ft | 406 kts | 339° |
| 2026-05-06 08:57 | 13.74502 | 100.99303 | 34808 ft | 406 kts | 354° |
| 2026-05-06 08:57 | 13.77325 | 100.99409 | 34800 ft | 406 kts | 12° |